createdAt,value
2022-08-01T02:53:17.253Z,100
2022-08-01T02:54:17.227Z,100
2022-08-01T02:55:17.234Z,100
2022-08-01T10:37:17.357Z,49.6
2022-08-01T12:24:17.384Z,47.4
2022-08-01T12:25:17.393Z,48.4
2022-08-01T12:26:26.634Z,49.8
2022-08-01T12:27:17.382Z,51.3
2022-08-01T12:28:17.387Z,51.7
2022-08-01T12:29:17.389Z,51.9
2022-08-01T12:30:17.455Z,51.9
2022-08-01T12:31:17.391Z,50.9
2022-08-01T12:32:17.398Z,50.8
2022-08-01T12:33:17.391Z,51.5
2022-08-01T12:34:17.391Z,52.9
2022-08-01T12:35:18.535Z,54.2
2022-08-01T12:36:17.386Z,55.5
2022-08-01T12:37:17.637Z,56.1
2022-08-01T12:38:17.398Z,57.3
2022-08-01T12:39:17.390Z,59
2022-08-01T12:40:17.391Z,59.5
2022-08-01T12:42:17.391Z,60.1
2022-08-01T12:43:27.343Z,59.4
2022-08-01T12:44:17.388Z,57.7
2022-08-01T12:45:17.643Z,56.5
2022-08-01T12:46:17.393Z,56.7
2022-08-01T12:47:17.388Z,58.3
2022-08-01T12:48:17.387Z,56.5
2022-08-01T12:49:17.457Z,55.4
2022-08-01T12:50:17.390Z,54.9
2022-08-01T12:51:17.390Z,54.3
2022-08-01T12:52:17.392Z,55.6
2022-08-01T12:53:17.396Z,55.6
2022-08-01T12:54:17.393Z,53.4
2022-08-01T12:55:17.394Z,52.3
2022-08-01T12:56:17.397Z,52.3
2022-08-01T12:57:17.402Z,53
2022-08-01T12:58:17.398Z,51.1
2022-08-01T12:59:17.435Z,50.6
2022-08-01T13:00:17.401Z,50.5
2022-08-01T13:01:17.491Z,50.1
2022-08-01T13:03:17.392Z,51.3
2022-08-01T13:04:17.394Z,51.9
2022-08-01T13:05:17.411Z,52.5
2022-08-01T13:06:18.132Z,51.7
2022-08-01T13:07:17.397Z,53.6
2022-08-01T13:08:17.392Z,52.4
2022-08-01T13:09:17.396Z,52.7
2022-08-01T13:10:17.405Z,53
2022-08-01T13:11:18.027Z,53.2
2022-08-01T13:12:17.401Z,53.8
2022-08-01T13:13:22.361Z,53.9
2022-08-01T13:14:17.400Z,53.6
2022-08-01T13:15:17.413Z,53.4
2022-08-01T13:16:27.906Z,52.6
2022-08-01T13:17:17.395Z,53.7
2022-08-01T13:18:17.396Z,53.7
2022-08-01T13:19:17.401Z,55
2022-08-01T13:20:17.406Z,54.4
2022-08-01T13:21:17.401Z,54.6
2022-08-01T13:22:17.399Z,55.5
2022-08-01T13:24:17.403Z,55.7
2022-08-01T13:25:19.798Z,54.8
2022-08-01T13:26:17.401Z,54.3
2022-08-01T13:27:17.405Z,54.1
2022-08-01T13:29:17.405Z,53.4
2022-08-01T13:30:17.407Z,53.3
2022-08-01T13:31:17.417Z,52
2022-08-01T13:32:27.794Z,51.5
2022-08-01T13:33:17.406Z,50.9
2022-08-01T13:34:17.431Z,51
2022-08-01T13:35:17.403Z,51.5
2022-08-01T13:36:17.403Z,51.2
2022-08-01T13:37:17.408Z,51.7
2022-08-01T13:38:17.417Z,51.5
2022-08-01T13:39:17.404Z,52.6
2022-08-01T13:40:17.412Z,54.3
2022-08-01T13:41:17.402Z,54.4
2022-08-01T13:42:19.243Z,56.5
2022-08-01T13:43:17.418Z,55.3
2022-08-01T13:44:17.406Z,54
2022-08-01T13:45:17.408Z,54.1
2022-08-01T13:46:18.628Z,53.1
2022-08-01T13:47:17.408Z,52.5
2022-08-01T13:48:19.096Z,51.2
2022-08-01T13:49:17.549Z,50.7
2022-08-01T13:50:17.416Z,50
2022-08-01T13:51:22.226Z,49
2022-08-01T13:52:17.415Z,50.9
2022-08-01T13:53:17.409Z,51.2
2022-08-01T13:54:17.407Z,51.9
2022-08-01T13:55:17.477Z,51.5
2022-08-01T13:56:17.418Z,51.7
2022-08-01T13:57:17.413Z,52.8
2022-08-01T13:58:17.406Z,51.3
2022-08-01T13:59:17.410Z,50.7
2022-08-01T14:00:17.414Z,49.9
2022-08-01T14:01:17.479Z,50.7
2022-08-01T14:02:17.414Z,51.5
2022-08-01T14:03:17.420Z,52.3
2022-08-01T14:04:17.413Z,51.9
2022-08-01T14:05:17.419Z,52
2022-08-01T14:06:17.413Z,51.9
2022-08-01T14:07:17.413Z,52.9
2022-08-01T14:08:17.418Z,53.9
2022-08-01T14:09:23.886Z,53.7
2022-08-01T14:10:19.948Z,53.5
2022-08-01T14:11:17.416Z,53.3
2022-08-01T14:12:17.417Z,53.8
2022-08-01T14:13:17.415Z,52.9
2022-08-01T14:14:17.413Z,53.5
2022-08-01T14:15:36.927Z,52.3
2022-08-01T14:16:17.438Z,52.5
2022-08-01T14:17:17.420Z,54.1
2022-08-01T14:18:17.424Z,54.2
2022-08-01T14:19:17.413Z,54.9
2022-08-01T14:20:17.424Z,54.6
2022-08-01T14:21:17.424Z,54.4
2022-08-01T14:22:17.418Z,55
2022-08-01T14:23:17.422Z,55.5
2022-08-01T14:24:17.419Z,54.7
2022-08-01T14:25:57.673Z,55
2022-08-01T14:26:17.415Z,55.2
2022-08-01T14:27:17.422Z,54.5
2022-08-01T14:28:17.422Z,54.8
2022-08-01T14:29:17.419Z,54.6
2022-08-01T14:30:17.425Z,55.2
2022-08-01T14:31:17.430Z,55.7
2022-08-01T14:32:17.423Z,56.3
2022-08-01T14:33:17.427Z,56.7
2022-08-01T14:34:17.433Z,56.3
2022-08-01T14:35:17.427Z,55.9
2022-08-01T14:36:29.669Z,56.9
2022-08-01T14:37:17.423Z,56.9
2022-08-01T14:38:31.686Z,57
2022-08-01T14:39:17.431Z,56.6
2022-08-01T14:40:17.434Z,56.9
2022-08-01T14:41:17.473Z,56.3
2022-08-01T14:42:17.430Z,56.3
2022-08-01T14:43:25.053Z,55.9
2022-08-01T14:44:17.426Z,55.9
2022-08-01T14:45:17.421Z,56.7
2022-08-01T14:46:17.430Z,56.1
2022-08-01T14:47:21.431Z,55.4
2022-08-01T14:48:17.432Z,55.6
2022-08-01T14:49:17.511Z,55.7
2022-08-01T14:50:17.435Z,55.3
2022-08-01T14:51:17.424Z,54.6
2022-08-01T14:52:17.438Z,54.6
2022-08-01T14:53:17.434Z,54.1
2022-08-01T14:54:17.430Z,53.6
2022-08-01T14:55:17.435Z,53.2
2022-08-01T14:56:17.441Z,53.4
2022-08-01T14:57:17.462Z,52.7
2022-08-01T14:58:17.441Z,52.2
2022-08-01T14:59:21.616Z,52.6
2022-08-01T15:00:17.442Z,52.7
2022-08-01T15:01:17.582Z,52.6
2022-08-01T15:02:17.453Z,54
2022-08-01T15:03:17.441Z,55
2022-08-01T15:04:17.432Z,54.6
2022-08-01T15:05:17.432Z,53.6
2022-08-01T15:06:17.438Z,53.3
2022-08-01T15:07:17.437Z,53.8
2022-08-01T15:08:17.434Z,56.3
2022-08-01T15:09:17.437Z,55.6
2022-08-01T15:10:17.441Z,56
2022-08-01T15:11:17.435Z,56.1
2022-08-01T15:12:17.446Z,55.8
2022-08-01T15:13:17.441Z,55.7
2022-08-01T15:14:17.431Z,55.9
2022-08-01T15:15:17.439Z,55.8
2022-08-01T15:16:17.441Z,55.8
2022-08-01T15:17:17.435Z,55.4
2022-08-01T15:18:17.433Z,55.5
2022-08-01T15:19:17.771Z,57.5
2022-08-01T15:20:17.440Z,56.8
2022-08-01T15:21:39.874Z,55.6
2022-08-01T15:22:17.446Z,55.2
2022-08-01T15:23:17.447Z,56.8
2022-08-01T15:24:17.439Z,59.3
2022-08-01T15:25:17.443Z,56.6
2022-08-01T15:26:17.437Z,55.1
2022-08-01T15:27:17.461Z,53.3
2022-08-01T15:28:17.458Z,53.4
2022-08-01T15:29:17.439Z,53.4
2022-08-01T15:30:17.446Z,53.7
2022-08-01T15:31:17.439Z,52.9
2022-08-01T15:32:17.454Z,52.4
2022-08-01T15:33:17.441Z,52.4
2022-08-01T15:34:17.459Z,51.6
2022-08-01T15:36:17.446Z,53.5
2022-08-01T15:37:17.443Z,52.9
2022-08-01T15:38:17.441Z,54
2022-08-01T15:39:17.441Z,53.8
2022-08-01T15:41:17.444Z,52
2022-08-01T15:42:23.851Z,52.5
2022-08-01T15:43:17.447Z,53.1
2022-08-01T15:44:17.443Z,53.2
2022-08-01T15:45:44.626Z,52.6
2022-08-01T15:46:17.455Z,53.1
2022-08-01T15:47:17.446Z,53.2
2022-08-01T15:48:17.467Z,52.9
2022-08-01T15:49:17.503Z,53
2022-08-01T15:50:17.465Z,53.5
2022-08-01T15:51:17.481Z,53.1
2022-08-01T15:52:22.047Z,53
2022-08-01T15:53:17.463Z,53.4
2022-08-01T15:54:17.446Z,53.4
2022-08-01T15:55:17.446Z,53.2
2022-08-01T15:56:17.454Z,52.1
2022-08-01T15:57:17.451Z,52.9
2022-08-01T15:58:17.452Z,54.2
2022-08-01T15:59:17.453Z,53.4
2022-08-01T16:00:17.461Z,53.9
2022-08-01T16:02:17.511Z,55.8
2022-08-01T16:03:17.453Z,54.6
2022-08-01T16:04:17.448Z,54.2
2022-08-01T16:05:20.526Z,54.2
2022-08-01T16:06:17.454Z,54.4
2022-08-01T16:07:17.522Z,53.4
2022-08-01T16:08:17.450Z,53.8
2022-08-01T16:09:18.457Z,54.1
2022-08-01T16:10:17.470Z,54.3
2022-08-01T16:11:17.461Z,53.1
2022-08-01T16:12:17.459Z,53
2022-08-01T16:13:17.458Z,52
2022-08-01T16:15:17.466Z,52.7
2022-08-01T16:16:17.460Z,53
2022-08-01T16:17:17.453Z,53.5
2022-08-01T16:18:17.462Z,53.2
2022-08-01T16:19:19.212Z,53.2
2022-08-01T16:20:17.456Z,53.1
2022-08-01T16:21:17.470Z,53.2
2022-08-01T16:23:17.462Z,54.8
2022-08-01T16:24:17.463Z,54.6
2022-08-01T16:25:17.459Z,54.5
2022-08-01T16:26:27.191Z,55.1
2022-08-01T16:27:17.469Z,55.7
2022-08-01T16:28:17.463Z,55.5
2022-08-01T16:29:17.459Z,55.7
2022-08-01T16:30:17.463Z,55.4
2022-08-01T16:32:29.615Z,55.6
2022-08-01T16:33:47.673Z,55.7
2022-08-01T16:34:17.464Z,54.4
2022-08-01T16:35:17.462Z,54.9
2022-08-01T16:36:17.526Z,53.5
2022-08-01T16:37:17.460Z,53.6
2022-08-01T16:38:17.461Z,53.5
2022-08-01T16:39:22.592Z,53.5
2022-08-01T16:40:17.478Z,52.9
2022-08-01T16:41:19.381Z,53.6
2022-08-01T16:42:17.481Z,53.8
2022-08-01T16:44:17.467Z,54.7
2022-08-01T16:45:17.477Z,54.3
2022-08-01T16:46:17.465Z,55.2
2022-08-01T16:47:17.464Z,55
2022-08-01T16:48:17.458Z,54.8
2022-08-01T16:49:17.513Z,55.1
2022-08-01T16:50:17.482Z,54.6
2022-08-01T16:51:17.464Z,54.9
2022-08-01T16:52:17.468Z,55.9
2022-08-01T16:53:17.469Z,56.2
2022-08-01T16:54:24.956Z,55.9
2022-08-01T16:55:17.468Z,56.6
2022-08-01T16:56:17.475Z,56.7
2022-08-01T16:57:17.473Z,54.7
2022-08-01T16:58:17.474Z,53.7
2022-08-01T16:59:17.477Z,53.2
2022-08-01T17:00:21.376Z,53
2022-08-01T17:02:01.428Z,54
2022-08-01T17:02:17.504Z,55
2022-08-01T17:03:46.241Z,54.8
2022-08-01T17:04:17.475Z,56.3
2022-08-01T17:05:17.490Z,56
2022-08-01T17:06:17.475Z,57.1
2022-08-01T17:07:17.468Z,57.4
2022-08-01T17:08:17.487Z,56.3
2022-08-01T17:09:17.478Z,56.4
2022-08-01T17:10:17.477Z,57.1
2022-08-01T17:11:17.502Z,56.5
2022-08-01T17:12:21.916Z,56.4
2022-08-01T17:13:17.484Z,56
2022-08-01T17:14:17.469Z,56.9
2022-08-01T17:15:17.501Z,56.3
2022-08-01T17:16:17.474Z,56.5
2022-08-01T17:17:17.476Z,56.6
2022-08-01T17:18:17.512Z,56.7
2022-08-01T17:19:17.483Z,56.3
2022-08-01T17:20:17.482Z,56.5
2022-08-01T17:21:17.478Z,55.5
2022-08-01T17:22:17.478Z,56.5
2022-08-01T17:23:17.478Z,56.9
2022-08-01T17:24:17.478Z,56.7
2022-08-01T17:25:17.477Z,57.5
2022-08-01T17:26:17.473Z,58.7
2022-08-01T17:27:17.768Z,59.2
2022-08-01T17:28:17.481Z,59
2022-08-01T17:29:17.480Z,57.9
2022-08-01T17:30:17.473Z,57.5
2022-08-01T17:31:17.484Z,57
2022-08-01T17:32:17.478Z,57
2022-08-01T17:33:17.488Z,57.6
2022-08-01T17:34:17.541Z,58.1
2022-08-01T17:36:17.486Z,59.3
2022-08-01T17:37:17.490Z,59.3
2022-08-01T17:38:17.486Z,59.1
2022-08-01T17:39:20.644Z,59.3
2022-08-01T17:40:39.261Z,59.2
2022-08-01T17:41:17.470Z,59.4
2022-08-01T17:42:17.483Z,58.9
2022-08-01T17:43:17.482Z,59
2022-08-01T17:44:17.485Z,59
2022-08-01T17:46:17.490Z,60.2
2022-08-01T17:47:40.875Z,59.9
2022-08-01T17:48:17.483Z,60.3
2022-08-01T17:49:33.363Z,60.3
2022-08-01T17:50:17.517Z,60.3
2022-08-01T17:51:22.427Z,60.2
2022-08-01T17:52:17.480Z,60.2
2022-08-01T17:53:20.768Z,60.4
2022-08-01T17:54:17.529Z,60.3
2022-08-01T17:55:53.318Z,60.9
2022-08-01T17:56:17.487Z,60.6
2022-08-01T17:57:17.488Z,60.4
2022-08-01T17:58:17.486Z,60
2022-08-01T17:59:17.493Z,59.6
2022-08-01T18:00:17.490Z,60
2022-08-01T18:01:17.594Z,60.5
2022-08-01T18:02:17.489Z,60.9
2022-08-01T18:03:22.787Z,60.4
2022-08-01T18:04:17.489Z,60.4
2022-08-01T18:05:17.489Z,60.4
2022-08-01T18:06:19.013Z,60.8
2022-08-01T18:07:17.905Z,60.9
2022-08-01T18:08:17.503Z,61.6
2022-08-01T18:09:17.524Z,62.2
2022-08-01T18:10:17.489Z,62.1
2022-08-01T18:11:17.507Z,63.1
2022-08-01T18:12:17.496Z,63.4
2022-08-01T18:13:17.496Z,63.1
2022-08-01T18:14:17.495Z,63
2022-08-01T18:15:17.490Z,62.8
2022-08-01T18:16:17.501Z,63
2022-08-01T18:17:17.494Z,62.5
2022-08-01T18:18:17.492Z,63
2022-08-01T18:19:17.498Z,62.8
2022-08-01T18:20:17.500Z,62.6
2022-08-01T18:21:17.494Z,62.9
2022-08-01T18:22:32.646Z,63.9
2022-08-01T18:23:17.499Z,64.9
2022-08-01T18:24:17.539Z,64.3
2022-08-01T18:25:17.498Z,64.4
2022-08-01T18:26:17.503Z,63.4
2022-08-01T18:27:17.493Z,63.5
2022-08-01T18:28:31.287Z,63.6
2022-08-01T18:29:23.143Z,64.3
2022-08-01T18:30:17.499Z,64.2
2022-08-01T18:31:17.705Z,64.4
2022-08-01T18:32:17.507Z,64.5
2022-08-01T18:33:17.502Z,64.5
2022-08-01T18:34:17.541Z,64.9
2022-08-01T18:35:17.500Z,64.6
2022-08-01T18:36:33.329Z,64.6
2022-08-01T18:37:17.511Z,65.1
2022-08-01T18:38:17.512Z,65
2022-08-01T18:39:17.540Z,65.4
2022-08-01T18:40:22.335Z,65.4
2022-08-01T18:41:17.503Z,65.6
2022-08-01T18:42:17.504Z,65.6
2022-08-01T18:43:17.491Z,65.8
2022-08-01T18:44:17.498Z,65.7
2022-08-01T18:45:17.495Z,66.2
2022-08-01T18:46:17.502Z,66.4
2022-08-01T18:47:17.502Z,66.3
2022-08-01T18:48:17.509Z,66.2
2022-08-01T18:49:17.651Z,66.3
2022-08-01T18:50:17.499Z,67.2
2022-08-01T18:51:17.510Z,68.2
2022-08-01T18:52:17.509Z,68.1
2022-08-01T18:53:17.515Z,67.9
2022-08-01T18:54:17.508Z,67.5
2022-08-01T18:55:17.503Z,67.7
2022-08-01T18:56:17.504Z,67.9
2022-08-01T18:57:17.502Z,68
2022-08-01T18:58:17.511Z,68
2022-08-01T18:59:17.517Z,68.2
2022-08-01T19:00:17.505Z,68.4
2022-08-01T19:01:17.556Z,68.7
2022-08-01T19:02:17.503Z,68.6
2022-08-01T19:03:17.507Z,68.8
2022-08-01T19:04:17.506Z,69.4
2022-08-01T19:05:17.508Z,69.2
2022-08-01T19:06:17.499Z,69.6
2022-08-01T19:07:33.486Z,69.5
2022-08-01T19:08:17.501Z,69.2
2022-08-01T19:09:20.857Z,69.4
2022-08-01T19:10:17.512Z,69.9
2022-08-01T19:11:17.508Z,69.8
2022-08-01T19:12:17.512Z,70.7
2022-08-01T19:13:17.506Z,71.4
2022-08-01T19:14:17.520Z,72.3
2022-08-01T19:15:17.511Z,72.7
2022-08-01T19:16:17.516Z,73.4
2022-08-01T19:17:17.515Z,75.1
2022-08-01T19:18:17.503Z,76.3
2022-08-01T19:19:24.749Z,76
2022-08-01T19:20:17.516Z,75.7
2022-08-01T19:21:17.506Z,75.7
2022-08-01T19:22:17.515Z,75.8
2022-08-01T19:23:17.519Z,76.2
2022-08-01T19:24:17.513Z,76
2022-08-01T19:25:17.519Z,76.3
2022-08-01T19:26:17.508Z,76.7
2022-08-01T19:27:17.510Z,76.4
2022-08-01T19:28:17.518Z,76.1
2022-08-01T19:29:17.512Z,76.5
2022-08-01T19:30:17.516Z,76.8
2022-08-01T19:31:17.511Z,76.7
2022-08-01T19:32:17.509Z,75.8
2022-08-01T19:33:17.516Z,75.6
2022-08-01T19:34:17.549Z,75.1
2022-08-01T19:35:17.539Z,75
2022-08-01T19:36:17.512Z,74.8
2022-08-01T19:37:17.521Z,74.5
2022-08-01T19:38:17.512Z,73.9
2022-08-01T19:39:17.552Z,74.7
2022-08-01T19:40:27.612Z,74.7
2022-08-01T19:41:17.522Z,74.8
2022-08-01T19:42:17.529Z,75.2
2022-08-01T19:43:17.548Z,74.8
2022-08-01T19:44:17.555Z,74.9
2022-08-01T19:45:17.533Z,75
2022-08-01T19:46:18.241Z,75.9
2022-08-01T19:47:17.518Z,76.1
2022-08-01T19:48:17.532Z,76.8
2022-08-01T19:49:17.618Z,77.2
2022-08-01T19:50:17.519Z,78
2022-08-01T19:51:17.523Z,78
2022-08-01T19:52:17.516Z,78.4
2022-08-01T19:53:17.524Z,78.6
2022-08-01T19:54:17.572Z,78.9
2022-08-01T19:55:17.525Z,79.6
2022-08-01T19:56:17.528Z,79.7
2022-08-01T19:57:17.518Z,80
2022-08-01T19:58:26.895Z,80.8
2022-08-01T19:59:17.520Z,81.3
2022-08-01T20:00:23.448Z,81.8
2022-08-01T20:01:17.526Z,81.9
2022-08-01T20:02:17.518Z,82.4
2022-08-01T20:03:17.606Z,83
2022-08-01T20:04:17.525Z,83.8
2022-08-01T20:05:17.527Z,85.5
2022-08-01T20:06:17.531Z,85.8
2022-08-01T20:07:17.526Z,85.4
2022-08-01T20:08:17.545Z,86.3
2022-08-01T20:09:17.528Z,86
2022-08-01T20:10:17.914Z,86.9
2022-08-01T20:11:21.546Z,85.9
2022-08-01T20:12:17.526Z,85.7
2022-08-01T20:13:17.533Z,86.6
2022-08-01T20:14:17.528Z,86.6
2022-08-01T20:15:17.549Z,87.2
2022-08-01T20:16:17.535Z,88
2022-08-01T20:17:17.523Z,89.1
2022-08-01T20:18:17.530Z,89.4
2022-08-01T20:19:17.524Z,89.3
2022-08-01T20:20:17.567Z,88.6
2022-08-01T20:21:17.532Z,88.2
2022-08-01T20:22:17.547Z,87.7
2022-08-01T20:23:18.164Z,87.5
2022-08-01T20:24:17.530Z,85.9
2022-08-01T20:25:17.546Z,85.7
2022-08-01T20:26:17.545Z,85.4
2022-08-01T20:27:17.532Z,85
2022-08-01T20:28:17.534Z,84.6
2022-08-01T20:29:17.529Z,85.9
2022-08-01T20:30:17.533Z,86
2022-08-01T20:31:17.543Z,87.2
2022-08-01T20:32:17.538Z,87
2022-08-01T20:33:17.540Z,86.6
2022-08-01T20:34:17.535Z,86.4
2022-08-01T20:35:17.562Z,86.3
2022-08-01T20:36:24.943Z,86.2
2022-08-01T20:37:17.530Z,86.9
2022-08-01T20:38:17.548Z,88.1
2022-08-01T20:39:17.536Z,89.4
2022-08-01T20:40:18.303Z,89.2
2022-08-01T20:41:17.530Z,87.9
2022-08-01T20:42:17.532Z,88.8
2022-08-01T20:43:17.531Z,89.6
2022-08-01T20:44:17.546Z,89.7
2022-08-01T20:45:18.649Z,89.8
2022-08-01T20:46:17.967Z,90.2
2022-08-01T20:47:17.545Z,91.2
2022-08-01T20:48:17.542Z,91.9
2022-08-01T20:49:17.576Z,92.4
2022-08-01T20:50:52.318Z,92.7
2022-08-01T20:51:17.535Z,92.3
2022-08-01T20:52:17.542Z,92.5
2022-08-01T20:53:17.541Z,92.6
2022-08-01T20:54:17.542Z,92.5
2022-08-01T20:55:17.538Z,92.4
2022-08-01T20:56:17.540Z,92.3
2022-08-01T20:57:17.542Z,91.7
2022-08-01T20:58:17.543Z,91.9
2022-08-01T20:59:55.440Z,92
2022-08-01T21:00:17.537Z,93
2022-08-01T21:02:17.535Z,94.8
2022-08-01T21:03:17.541Z,95.1
2022-08-01T21:04:17.565Z,96.2
2022-08-01T21:05:17.559Z,97.1
2022-08-01T21:06:17.553Z,98
2022-08-01T21:07:22.917Z,97.7
2022-08-01T21:08:17.558Z,97.7
2022-08-01T21:09:17.568Z,98
2022-08-01T21:10:17.540Z,97.7
2022-08-01T21:11:17.546Z,97.5
2022-08-01T21:12:17.554Z,97.6
2022-08-01T21:13:20.946Z,97.1
2022-08-01T21:14:17.547Z,97.5
2022-08-01T21:15:17.549Z,97.6
2022-08-01T21:17:17.543Z,97.7
2022-08-01T21:18:17.547Z,98.4
2022-08-01T21:19:20.139Z,98.6
2022-08-01T21:20:17.555Z,98.8
2022-08-01T21:21:17.545Z,98.7
2022-08-01T21:23:17.552Z,99.6
2022-08-01T21:24:17.608Z,100
2022-08-01T21:25:17.546Z,100
2022-08-01T21:26:17.565Z,100
2022-08-01T21:27:17.548Z,100
2022-08-01T21:28:17.550Z,100
2022-08-01T21:29:17.563Z,100
2022-08-01T21:30:17.564Z,100
2022-08-01T21:31:17.576Z,100
2022-08-01T21:32:17.556Z,100
2022-08-01T21:33:17.557Z,100
2022-08-01T21:34:17.555Z,100
2022-08-01T21:35:18.634Z,100
2022-08-01T21:36:17.554Z,100
2022-08-01T21:37:17.555Z,100
2022-08-01T21:38:17.562Z,100
2022-08-01T21:39:17.556Z,100
2022-08-01T21:40:17.556Z,100
2022-08-01T21:41:17.552Z,100
2022-08-01T21:42:18.952Z,100
2022-08-01T21:44:17.561Z,100
2022-08-01T21:45:17.554Z,100
2022-08-01T21:46:19.400Z,100
2022-08-01T21:47:17.552Z,100
2022-08-01T21:48:17.556Z,100
2022-08-01T21:49:17.619Z,100
2022-08-01T21:50:17.575Z,100
2022-08-01T21:51:17.555Z,100
2022-08-01T21:52:17.570Z,100
2022-08-01T21:53:17.563Z,100
2022-08-01T21:54:17.564Z,100
2022-08-01T21:55:17.554Z,100
2022-08-01T21:56:17.550Z,100
2022-08-01T21:57:17.554Z,100
2022-08-01T21:58:17.558Z,100
2022-08-01T21:59:17.566Z,100
2022-08-01T22:00:25.102Z,100
2022-08-01T22:01:17.625Z,100
2022-08-01T22:02:17.633Z,100
2022-08-01T22:03:17.560Z,100
2022-08-01T22:05:17.560Z,100
2022-08-01T22:06:17.554Z,100
2022-08-01T22:07:17.578Z,100
2022-08-01T22:08:17.576Z,100
2022-08-01T22:09:17.562Z,100
2022-08-01T22:10:17.555Z,100
2022-08-01T22:11:17.558Z,100
2022-08-01T22:12:18.518Z,100
2022-08-01T22:13:17.555Z,100
2022-08-01T22:14:17.584Z,100
2022-08-01T22:15:17.559Z,100
2022-08-01T22:16:17.567Z,100
2022-08-01T22:17:17.560Z,100
2022-08-01T22:18:17.569Z,100
2022-08-01T22:19:44.611Z,100
2022-08-01T22:20:17.561Z,100
2022-08-01T22:21:17.561Z,100
2022-08-01T22:22:45.279Z,100
2022-08-01T22:23:17.563Z,100
2022-08-01T22:24:17.565Z,100
2022-08-01T22:26:17.612Z,100
2022-08-01T22:27:17.565Z,100
2022-08-01T22:28:17.566Z,100
2022-08-01T22:29:17.563Z,100
2022-08-01T22:31:17.643Z,100
2022-08-01T22:32:17.564Z,100
2022-08-01T22:33:17.881Z,100
2022-08-01T22:34:17.581Z,100
2022-08-01T22:35:17.570Z,100
2022-08-01T22:36:17.636Z,100
2022-08-01T22:37:17.576Z,100
2022-08-01T22:38:17.583Z,100
2022-08-01T22:39:17.577Z,100
2022-08-01T22:40:17.572Z,100
2022-08-01T22:41:17.575Z,100
2022-08-01T22:42:17.854Z,100
2022-08-01T22:43:17.570Z,100
2022-08-01T22:44:17.573Z,100
2022-08-01T22:45:17.574Z,100
2022-08-01T22:46:17.576Z,100
2022-08-01T22:47:17.581Z,100
2022-08-01T22:49:17.646Z,100
2022-08-01T22:50:17.581Z,100
2022-08-01T22:52:17.573Z,100
2022-08-01T22:53:17.579Z,100
2022-08-01T22:54:19.535Z,100
2022-08-01T22:55:17.567Z,100
2022-08-01T22:56:17.579Z,100
2022-08-01T22:57:17.577Z,100
2022-08-01T22:58:17.588Z,100
2022-08-01T22:59:17.574Z,100
2022-08-01T23:00:17.577Z,100
2022-08-01T23:01:21.159Z,100
2022-08-01T23:02:17.838Z,100
2022-08-01T23:03:17.572Z,100
2022-08-01T23:04:17.576Z,100
2022-08-01T23:05:17.581Z,100
2022-08-01T23:06:17.572Z,100
2022-08-01T23:07:17.603Z,100
2022-08-01T23:08:17.579Z,100
2022-08-01T23:10:17.571Z,100
2022-08-01T23:11:17.571Z,100
2022-08-01T23:12:17.584Z,100
2022-08-01T23:13:17.591Z,100
2022-08-01T23:14:17.575Z,100
2022-08-01T23:15:17.588Z,100
2022-08-01T23:16:17.760Z,100
2022-08-01T23:17:26.358Z,100
2022-08-01T23:18:17.659Z,100
2022-08-01T23:19:17.582Z,100
2022-08-01T23:20:17.586Z,100
2022-08-01T23:21:17.576Z,100
2022-08-01T23:22:17.582Z,100
2022-08-01T23:23:17.585Z,100
2022-08-01T23:24:17.589Z,100
2022-08-01T23:25:17.576Z,100
2022-08-01T23:26:17.582Z,100
2022-08-01T23:27:17.582Z,100
2022-08-01T23:28:17.613Z,100
2022-08-01T23:29:17.581Z,100
2022-08-01T23:31:17.582Z,100
2022-08-01T23:32:17.585Z,100
2022-08-01T23:33:17.581Z,100
2022-08-01T23:34:20.042Z,100
2022-08-01T23:35:17.578Z,100
2022-08-01T23:36:17.589Z,100
2022-08-01T23:37:17.585Z,100
2022-08-01T23:38:17.582Z,100
2022-08-01T23:39:17.583Z,100
2022-08-01T23:40:17.580Z,100
2022-08-01T23:41:17.590Z,100
2022-08-01T23:42:17.584Z,100
2022-08-01T23:43:18.045Z,100
2022-08-01T23:44:17.581Z,100
2022-08-01T23:45:17.612Z,100
2022-08-01T23:46:17.600Z,100
2022-08-01T23:47:17.584Z,100
2022-08-01T23:48:17.588Z,100
2022-08-01T23:49:17.614Z,100
2022-08-01T23:50:17.591Z,100
2022-08-01T23:52:20.657Z,100
2022-08-01T23:53:17.606Z,100
2022-08-01T23:54:17.604Z,100
2022-08-01T23:55:17.592Z,100
2022-08-01T23:56:21.952Z,100
2022-08-01T23:57:17.592Z,100
2022-08-01T23:58:17.591Z,100
2022-08-01T23:59:17.599Z,100
